• Join FlightAware (Why Join?)
  • Login
  • US Flag 
10:31AM EDT


 

Airport Tracker/Info


-or-


 

Live Flight TrackerFlight Track Log ✈ WEW1540 ✈ 08-May-2013 ✈ CYKY - CYYN

Flight Track Log - Related Links

Times and Time Zones

All times are in EDT time to prevent confusion due to time zone crossing. See the WEW1540 flight status page for this flight to view local times or setup timezone preferences in your user account.

Time Position Orientation Groundspeed Altitude Reporting Facility
EDT Latitude Longitude Course Direction KTS MPH feet Rate Location/Type
07:10PM 51.3833 -109.0667 142° Southeast 160 184 9,100  Level Winnipeg Center
07:11PM 51.3333 -109.0000 140° Southeast 180 207 9,100  Level Winnipeg Center
07:12PM 51.3000 -108.9667 148° Southeast 190 219 9,100  Level Winnipeg Center
07:13PM 51.2500 -108.9000 140° Southeast 190 219 9,100  Level Winnipeg Center
07:14PM 51.2167 -108.8333 129° Southeast 200 230 9,100  Level Winnipeg Center
07:15PM 51.1161 -108.6814 142° Southeast  Level Estimated
07:15PM 51.1667 -108.8000 157° South 190 219 9,100  Level Winnipeg Center
07:16PM 51.0796 -108.6362 142° Southeast  Level FlightAware Approximate
07:16PM 51.1167 -108.7333 140° Southeast 210 242 9,100  Level Winnipeg Center
07:17PM 51.0833 -108.7000 148° Southeast 190 219 9,100  Level Winnipeg Center
07:18PM 51.0333 -108.6333 140° Southeast 190 219 9,100  Level Winnipeg Center
07:19PM 50.9833 -108.5833 148° Southeast 190 219 9,100  Level Winnipeg Center
07:20PM 50.9500 -108.5500 148° Southeast 190 219 9,100  Level Winnipeg Center
07:21PM 50.9167 -108.5000 137° Southeast 190 219 9,100  Level Winnipeg Center
07:23PM 50.8807 -108.4484 138° Southeast  Level FlightAware Approximate
07:30PM 50.6400 -108.1064 138° Southeast  Level FlightAware Approximate
07:31PM 50.6055 -108.0578 138° Southeast  Level FlightAware Approximate
07:32PM 50.5682 -108.0123 143° Southeast  Level FlightAware Approximate
07:33PM 50.5312 -107.9685 143° Southeast  Level FlightAware Approximate
07:34PM 50.4943 -107.9248 143° Southeast  Level FlightAware Approximate
07:35PM 50.4573 -107.8812 143° Southeast  Level FlightAware Approximate
07:36PM 50.4203 -107.8377 143° Southeast  Level FlightAware Approximate
07:37PM 50.3829 -107.7952 144° Southeast  Level FlightAware Approximate
07:38PM 50.3453 -107.7529 144° Southeast  Level FlightAware Approximate
07:39PM 50.3078 -107.7107 144° Southeast  Level FlightAware Approximate
07:40PM 50.2919 -107.6906 144° Southeast  Level Estimated
07:41PM 50.2919 -107.6906 144° Southeast  Level Estimated
07:42PM 50.2919 -107.6906 144° Southeast  Level Estimated
07:43PM 50.2919 -107.6906 144° Southeast  Level Estimated
07:44PM 50.2919 -107.6906 144° Southeast  Level Estimated
07:45PM 50.2919 -107.6906 144° Southeast  Level Estimated